BA1418 / G-EUYU 7700 Squawk Report (18th of May, 2018)

Aircraft A320 Reg No. G-EUYU Age 4 years old
Model A320 Jet engines 2 First flight 28-02-14
Registered 20-03-14 Rollout 02-14 Delivered 20-03-14
Construction No. 6028 Line No. N/A Series 232(SL)
ADSHEX 406A3E Airline name British Airways Owner N/A
Airfield based Heathrow~Gtr London~G First tracked 2014-03-20 18:24:02

Flight history for G-EUYU

Route Flight No Date Playback
Schiphol (AMS) - Heathrow (LHR) BA447 2018-11-16 17:30:00
Heathrow (LHR) - Schiphol (AMS) BA446 2018-11-16 17:10:00
Geneve Cointrin (GVA) - Heathrow (LHR) BA727 2018-11-16 15:01:00
Heathrow (LHR) - Geneve Cointrin (GVA) BA726 2018-11-16 10:22:00
Charles De Gaulle (CDG) - Heathrow (LHR) BA303 2018-11-16 08:47:00
Heathrow (LHR) - Charles De Gaulle (CDG) BA326 2018-11-16 06:38:00
Frankfurt Main (FRA) - Heathrow (LHR) BA911 2018-11-15 21:12:00
Heathrow (LHR) - Frankfurt Main (FRA) BA910 2018-11-15 18:13:00
Brussels Airport (BRU) - Heathrow (LHR) BA397 2018-11-15 13:59:00
Heathrow (LHR) - Brussels Airport (BRU) BA396 2018-11-15 13:10:00
Eleftherios Venizelos Intl (ATH) - Heathrow (LHR) BA631 2018-11-15 11:17:00
Heathrow (LHR) - Eleftherios Venizelos Intl (ATH) BA634 2018-11-15 06:06:00
Blagnac (TLS) - Heathrow (LHR) BA379 2018-11-14 19:53:00
Heathrow (LHR) - Blagnac (TLS) BA378 2018-11-14 16:28:00
Manchester (MAN) - Heathrow (LHR) BA1389 2018-11-14 13:47:00
Heathrow (LHR) - Manchester (MAN) BA1386 2018-11-14 09:09:00
Schiphol (AMS) - Heathrow (LHR) BA427 2018-11-14 08:23:00
Heathrow (LHR) - Schiphol (AMS) BA426 2018-11-13 21:11:00
Henri Coanda (OTP) - Heathrow (LHR) BA887 2018-11-13 19:03:00
Heathrow (LHR) - Henri Coanda (OTP) BA886 2018-11-13 13:54:00
Time Lat Lon Altitude Heading Speed Vertical Rate
2018-05-18 17:26:46 GMT 54.614574 -5.871839 0 154 0 0
2018-05-18 17:26:40 GMT 54.614632 -5.871901 0 154 2 0
2018-05-18 17:26:16 GMT 54.614983 -5.872172 0 126 4 0
2018-05-18 17:25:58 GMT 54.614922 -5.872692 0 33 7 0
2018-05-18 17:25:44 GMT 54.614552 -5.873129 0 33 8 0
2018-05-18 17:25:40 GMT 54.614399 -5.873303 0 33 8 0
2018-05-18 17:25:31 GMT 54.614189 -5.873586 0 50 8 0
2018-05-18 17:25:21 GMT 54.614014 -5.874023 0 56 7 0
2018-05-18 17:25:09 GMT 54.613781 -5.874502 0 36 9 0
2018-05-18 17:25:00 GMT 54.613483 -5.874858 0 36 9 0
2018-05-18 17:24:50 GMT 54.613178 -5.875209 0 33 8 0
2018-05-18 17:24:40 GMT 54.612930 -5.875501 0 33 7 0
2018-05-18 17:24:30 GMT 54.612713 -5.875750 0 45 7 0
2018-05-18 17:24:19 GMT 54.612522 -5.876252 0 87 8 0
2018-05-18 17:23:19 GMT 54.616516 -5.874398 0 213 46 0
2018-05-18 17:23:08 GMT 54.618919 -5.871546 0 213 94 0
2018-05-18 17:22:57 GMT 54.623604 -5.865950 -300 215 130 -576
2018-05-18 17:22:48 GMT 54.628464 -5.860156 -150 215 128 -704
2018-05-18 17:22:37 GMT 54.633568 -5.854132 -25 215 125 -640
2018-05-18 17:22:28 GMT 54.638363 -5.848389 75 215 126 -640
2018-05-18 17:22:20 GMT 54.641808 -5.844310 150 215 126 -640
2018-05-18 17:22:15 GMT 54.644028 -5.841657 200 215 126 -640
2018-05-18 17:22:10 GMT 54.646835 -5.838401 275 215 125 -640
2018-05-18 17:22:07 GMT 54.647873 -5.837133 300 215 125 -576
2018-05-18 17:22:02 GMT 54.650417 -5.833990 350 215 126 -704
2018-05-18 17:21:57 GMT 54.652931 -5.830994 400 215 125 -640
2018-05-18 17:21:51 GMT 54.656193 -5.827082 475 216 126 -704
2018-05-18 17:21:47 GMT 54.657623 -5.825339 525 215 126 -768
2018-05-18 17:21:39 GMT 54.661423 -5.820734 625 215 126 -768
2018-05-18 17:21:36 GMT 54.663265 -5.818592 675 215 126 -704
2018-05-18 17:21:29 GMT 54.666229 -5.814999 750 215 125 -512
2018-05-18 17:21:25 GMT 54.668106 -5.812737 775 215 127 -576
2018-05-18 17:21:18 GMT 54.671631 -5.808536 850 215 129 -704
2018-05-18 17:21:14 GMT 54.673187 -5.806678 875 216 130 -832
2018-05-18 17:21:08 GMT 54.676392 -5.802801 975 216 134 -832
2018-05-18 17:21:04 GMT 54.678452 -5.800297 1,025 216 137 -896
2018-05-18 17:20:58 GMT 54.681839 -5.796177 1,100 216 144 -576
2018-05-18 17:20:54 GMT 54.684357 -5.793124 1,150 216 148 -768
2018-05-18 17:20:45 GMT 54.688965 -5.787548 1,250 216 155 -896
2018-05-18 17:20:42 GMT 54.690491 -5.785675 1,275 216 155 -896
2018-05-18 17:20:35 GMT 54.694828 -5.780390 1,475 215 158 -768
2018-05-18 17:20:32 GMT 54.696739 -5.778143 1,425 215 158 -768
2018-05-18 17:20:25 GMT 54.701069 -5.772899 1,525 216 158 -832
2018-05-18 17:20:21 GMT 54.703674 -5.769653 1,575 217 158 -832
2018-05-18 17:20:17 GMT 54.705688 -5.767095 1,625 217 159 -896
2018-05-18 17:20:14 GMT 54.707108 -5.765318 1,675 217 159 -768
2018-05-18 17:20:11 GMT 54.709717 -5.762006 1,725 217 159 -704
2018-05-18 17:20:05 GMT 54.712936 -5.758001 1,775 217 158 -448
2018-05-18 17:20:00 GMT 54.715897 -5.754251 1,825 220 158 -448
2018-05-18 17:19:55 GMT 54.718758 -5.750344 1,850 222 159 -448
2018-05-18 17:19:50 GMT 54.721436 -5.745930 1,900 230 159 -576
2018-05-18 17:19:45 GMT 54.723816 -5.740760 1,950 238 159 -576
2018-05-18 17:19:39 GMT 54.725739 -5.735106 2,000 246 161 -640
2018-05-18 17:19:36 GMT 54.726883 -5.730905 2,025 246 161 -640
2018-05-18 17:19:32 GMT 54.727837 -5.727373 2,075 246 161 -640
2018-05-18 17:19:27 GMT 54.729630 -5.720565 2,125 246 162 -640
2018-05-18 17:19:24 GMT 54.730728 -5.716283 2,175 246 164 -640
2018-05-18 17:19:19 GMT 54.732162 -5.710727 2,200 246 164 -576
2018-05-18 17:19:13 GMT 54.734215 -5.703070 2,275 246 164 -512
2018-05-18 17:19:10 GMT 54.734894 -5.700450 2,300 246 165 -384
2018-05-18 17:19:07 GMT 54.735935 -5.696328 2,325 247 166 -320
2018-05-18 17:19:04 GMT 54.736820 -5.692915 2,325 248 170 -384
2018-05-18 17:19:01 GMT 54.737797 -5.688920 2,350 248 171 -320
2018-05-18 17:18:57 GMT 54.738968 -5.684052 2,375 249 173 -384
2018-05-18 17:18:52 GMT 54.740387 -5.676620 2,400 258 179 -448
2018-05-18 17:18:48 GMT 54.740963 -5.671858 2,425 265 181 -512
2018-05-18 17:18:42 GMT 54.740982 -5.663291 2,475 275 185 -640
2018-05-18 17:18:38 GMT 54.740170 -5.657210 2,525 290 189 -640
2018-05-18 17:18:33 GMT 54.738419 -5.650204 2,575 300 190 -640
2018-05-18 17:18:30 GMT 54.737099 -5.646224 2,600 303 191 -576
2018-05-18 17:18:27 GMT 54.735306 -5.641318 2,650 303 191 -576
2018-05-18 17:18:20 GMT 54.732056 -5.632593 2,700 303 191 -576
2018-05-18 17:18:17 GMT 54.730911 -5.629443 2,725 303 191 -640
2018-05-18 17:18:13 GMT 54.729218 -5.624758 2,775 303 191 -640
2018-05-18 17:18:09 GMT 54.727112 -5.619103 2,825 303 191 -704
2018-05-18 17:18:06 GMT 54.725830 -5.615468 2,850 303 191 -704
2018-05-18 17:18:02 GMT 54.724091 -5.610863 2,900 303 190 -704
2018-05-18 17:17:59 GMT 54.722294 -5.606024 2,950 303 190 -832
2018-05-18 17:17:56 GMT 54.720993 -5.602362 2,975 303 190 -960
2018-05-18 17:17:52 GMT 54.719269 -5.597784 3,025 303 190 -1024
2018-05-18 17:17:46 GMT 54.716103 -5.589128 3,150 303 187 -960
2018-05-18 17:17:42 GMT 54.714523 -5.584851 3,300 303 183 -768
2018-05-18 17:17:36 GMT 54.711594 -5.576935 3,300 303 180 -576
2018-05-18 17:17:32 GMT 54.709808 -5.572088 3,350 303 182 256
2018-05-18 17:17:28 GMT 54.708206 -5.567806 3,350 303 182 256
2018-05-18 17:17:25 GMT 54.706699 -5.563576 3,350 303 184 512
2018-05-18 17:17:20 GMT 54.704468 -5.557501 3,325 302 193 -448
2018-05-18 17:17:15 GMT 54.702187 -5.551258 3,350 302 193 -448
2018-05-18 17:17:08 GMT 54.698788 -5.541770 3,400 302 195 -512
2018-05-18 17:17:05 GMT 54.697063 -5.536943 3,425 302 198 -448
2018-05-18 17:17:02 GMT 54.695618 -5.532909 3,450 302 200 -512
2018-05-18 17:16:54 GMT 54.692223 -5.523293 3,525 302 204 -512
2018-05-18 17:16:51 GMT 54.690536 -5.518530 3,550 302 205 -512
2018-05-18 17:16:44 GMT 54.686737 -5.507866 3,600 303 209 -512
2018-05-18 17:16:39 GMT 54.684772 -5.502486 3,650 303 211 -512
2018-05-18 17:16:34 GMT 54.681839 -5.494860 3,700 305 214 -448
2018-05-18 17:16:31 GMT 54.679825 -5.489771 3,725 307 217 0
2018-05-18 17:16:24 GMT 54.675884 -5.480513 3,725 307 224 64
2018-05-18 17:16:21 GMT 54.673416 -5.474770 3,725 307 226 -64
2018-05-18 17:16:14 GMT 54.669598 -5.466114 3,725 308 229 -64
2018-05-18 17:16:09 GMT 54.666805 -5.459706 3,750 308 230 -64
2018-05-18 17:16:03 GMT 54.662708 -5.450301 3,750 308 232 0
2018-05-18 17:15:59 GMT 54.659870 -5.443809 3,750 308 232 0
2018-05-18 17:15:54 GMT 54.656067 -5.435163 3,725 307 242 0
2018-05-18 17:15:49 GMT 54.653862 -5.430076 3,725 308 239 0
2018-05-18 17:15:43 GMT 54.649704 -5.420541 3,725 307 245 0
2018-05-18 17:15:40 GMT 54.646957 -5.414240 3,725 307 250 64
2018-05-18 17:15:37 GMT 54.644760 -5.409070 3,725 307 252 64
2018-05-18 17:15:33 GMT 54.642197 -5.403254 3,725 307 256 0
2018-05-18 17:15:29 GMT 54.639633 -5.397357 3,725 308 259 -64
2018-05-18 17:15:25 GMT 54.637070 -5.391379 3,725 307 260 -64
2018-05-18 17:15:22 GMT 54.634869 -5.386380 3,725 307 260 -64
2018-05-18 17:15:18 GMT 54.631577 -5.378777 3,725 307 260 -128
2018-05-18 17:15:13 GMT 54.627823 -5.370053 3,750 307 261 -64
2018-05-18 17:15:09 GMT 54.624767 -5.363076 3,750 307 262 -64
2018-05-18 17:15:02 GMT 54.620270 -5.352684 3,750 307 263 0
2018-05-18 17:14:58 GMT 54.617065 -5.345253 3,750 307 265 0
2018-05-18 17:14:52 GMT 54.612625 -5.334993 3,750 307 273 -64
2018-05-18 17:14:47 GMT 54.609009 -5.326592 3,750 307 276 -128
2018-05-18 17:14:41 GMT 54.604843 -5.316883 3,750 307 282 -320
2018-05-18 17:14:37 GMT 54.600746 -5.307395 3,800 307 287 -576
2018-05-18 17:14:31 GMT 54.596649 -5.297741 3,850 307 291 -960
2018-05-18 17:14:28 GMT 54.594090 -5.291748 3,900 307 293 -1088
2018-05-18 17:14:24 GMT 54.590599 -5.283425 4,000 307 295 -1280
2018-05-18 17:14:21 GMT 54.588821 -5.279254 4,025 306 296 -1472
2018-05-18 17:14:17 GMT 54.585758 -5.272023 4,125 306 297 -1472
2018-05-18 17:14:14 GMT 54.583328 -5.266248 4,200 306 297 -1472
2018-05-18 17:14:11 GMT 54.580544 -5.259788 4,275 307 299 -1472
2018-05-18 17:14:07 GMT 54.576958 -5.251298 4,375 307 300 -1408
2018-05-18 17:14:03 GMT 54.573376 -5.242726 4,500 306 301 -1408
2018-05-18 17:14:00 GMT 54.572071 -5.239646 4,525 306 301 -1408
2018-05-18 17:13:54 GMT 54.566532 -5.226496 4,700 306 301 -1152
2018-05-18 17:13:51 GMT 54.563923 -5.220254 4,750 306 301 -1024
2018-05-18 17:13:47 GMT 54.560665 -5.212513 4,825 307 302 -896
2018-05-18 17:13:41 GMT 54.555542 -5.200411 4,925 307 304 -1024
2018-05-18 17:13:37 GMT 54.552006 -5.192205 4,975 307 308 -1088
2018-05-18 17:13:33 GMT 54.549500 -5.186355 5,025 307 308 -1152
2018-05-18 17:13:29 GMT 54.546234 -5.178805 5,100 307 312 -1216
2018-05-18 17:13:26 GMT 54.542465 -5.170066 5,200 307 313 -1536
2018-05-18 17:13:20 GMT 54.537735 -5.159293 5,350 307 314 -2112
2018-05-18 17:13:14 GMT 54.532516 -5.147256 5,575 307 313 -2432
2018-05-18 17:13:10 GMT 54.529083 -5.139259 5,725 307 313 -2304
2018-05-18 17:13:06 GMT 54.525650 -5.131261 5,900 307 313 -2048
2018-05-18 17:13:02 GMT 54.522171 -5.123264 6,025 307 313 -1984
2018-05-18 17:12:58 GMT 54.519058 -5.116075 6,150 307 314 -1920
2018-05-18 17:12:55 GMT 54.516312 -5.109612 6,250 307 315 -1920
2018-05-18 17:12:49 GMT 54.511600 -5.098738 6,425 307 316 -1984
2018-05-18 17:12:45 GMT 54.507458 -5.089000 6,575 307 316 -2048
2018-05-18 17:12:39 GMT 54.502289 -5.076849 6,775 307 317 -1984
2018-05-18 17:12:35 GMT 54.498798 -5.068692 6,900 307 318 -1920
2018-05-18 17:12:32 GMT 54.496170 -5.062597 7,050 307 319 -2048
2018-05-18 17:12:28 GMT 54.493378 -5.056054 7,100 307 319 -2048
2018-05-18 17:12:24 GMT 54.489719 -5.047469 7,250 307 319 -2112
2018-05-18 17:12:21 GMT 54.487301 -5.041726 7,425 307 320 -2240
2018-05-18 17:12:18 GMT 54.484680 -5.035535 7,450 307 320 -2240
2018-05-18 17:12:14 GMT 54.480690 -5.026162 7,625 307 320 -2176
2018-05-18 17:12:11 GMT 54.478088 -5.019944 7,775 306 320 -2048
2018-05-18 17:12:08 GMT 54.475475 -5.013761 7,850 306 320 -2048
2018-05-18 17:12:04 GMT 54.471817 -5.005080 8,000 306 321 -1984
2018-05-18 17:11:58 GMT 54.467010 -4.993448 8,175 306 322 -1920
2018-05-18 17:11:53 GMT 54.462673 -4.982966 8,475 305 324 -1920
2018-05-18 17:11:47 GMT 54.457397 -4.969859 8,775 305 324 -2496
2018-05-18 17:11:44 GMT 54.454529 -4.962658 8,650 305 324 -2368
2018-05-18 17:11:39 GMT 54.450623 -4.952976 8,875 305 323 -2496
2018-05-18 17:11:35 GMT 54.447033 -4.944097 9,100 305 323 -2304
2018-05-18 17:11:31 GMT 54.444122 -4.936900 9,125 306 324 -1920
2018-05-18 17:11:27 GMT 54.440369 -4.927691 9,275 306 324 -1920
2018-05-18 17:11:22 GMT 54.435471 -4.915978 9,475 306 325 -1984
2018-05-18 17:11:16 GMT 54.426411 -4.894742 9,800 307 326 -1920
2018-05-18 17:11:11 GMT 54.426037 -4.893910 10,000 307 326 -1856
2018-05-18 17:11:07 GMT 54.422607 -4.886008 10,200 307 329 -1664
2018-05-18 17:11:04 GMT 54.418625 -4.876880 10,050 307 328 -1792
2018-05-18 17:11:00 GMT 54.416260 -4.871438 10,125 307 329 -1664
2018-05-18 17:10:56 GMT 54.412628 -4.863115 10,350 307 332 -1728
2018-05-18 17:10:50 GMT 54.407139 -4.850464 10,475 307 336 -2112
2018-05-18 17:10:46 GMT 54.403503 -4.841974 10,625 307 333 -1856
2018-05-18 17:10:40 GMT 54.397018 -4.827037 10,850 307 336 -1984
2018-05-18 17:10:36 GMT 54.394287 -4.820668 10,875 307 336 -2112
2018-05-18 17:10:33 GMT 54.391113 -4.813385 10,950 307 336 -2048
2018-05-18 17:10:30 GMT 54.388702 -4.807850 11,100 307 337 -1728
2018-05-18 17:10:27 GMT 54.385723 -4.800942 11,150 307 338 -1472
2018-05-18 17:10:24 GMT 54.383331 -4.795371 11,225 307 339 -1472
2018-05-18 17:10:19 GMT 54.378845 -4.785031 11,350 307 340 -2624
2018-05-18 17:10:16 GMT 54.375248 -4.776722 11,450 307 341 -2368
2018-05-18 17:10:13 GMT 54.372803 -4.771136 11,550 307 341 -2432
2018-05-18 17:10:10 GMT 54.369827 -4.764189 11,675 307 341 -2688
2018-05-18 17:10:05 GMT 54.365147 -4.753335 12,050 307 340 -2432
2018-05-18 17:10:02 GMT 54.362320 -4.746902 12,075 307 340 -2368
2018-05-18 17:09:58 GMT 54.358768 -4.738686 12,175 307 340 -2304
2018-05-18 17:09:55 GMT 54.355545 -4.731391 12,425 307 340 -2304
2018-05-18 17:09:51 GMT 54.352158 -4.723636 12,925 308 340 -2112
2018-05-18 17:09:48 GMT 54.349136 -4.716770 12,550 308 340 -2112
2018-05-18 17:09:44 GMT 54.345337 -4.708126 12,750 307 341 -1984
2018-05-18 17:09:40 GMT 54.341732 -4.699901 12,875 307 342 -2048
2018-05-18 17:09:37 GMT 54.339077 -4.693909 12,925 307 342 -2112
2018-05-18 17:09:34 GMT 54.336227 -4.687365 13,150 307 343 -2496
2018-05-18 17:09:30 GMT 54.332428 -4.678722 13,250 307 342 -2496
2018-05-18 17:09:27 GMT 54.329628 -4.672186 13,300 307 342 -2560
2018-05-18 17:09:23 GMT 54.326065 -4.663858 13,475 307 341 -2496
2018-05-18 17:09:20 GMT 54.323044 -4.656911 13,600 307 341 -2560
2018-05-18 17:09:16 GMT 54.319290 -4.648267 13,775 307 341 -2560
2018-05-18 17:09:13 GMT 54.316315 -4.641239 13,900 307 341 -2496
2018-05-18 17:09:07 GMT 54.307888 -4.621665 14,225 307 342 -1856
2018-05-18 17:09:03 GMT 54.306976 -4.619509 14,325 307 344 -1856
2018-05-18 17:09:00 GMT 54.303223 -4.610784 14,450 307 344 -1792
2018-05-18 17:08:56 GMT 54.299789 -4.602868 14,500 307 345 -1728
2018-05-18 17:08:52 GMT 54.296402 -4.594951 14,600 307 347 -1792
2018-05-18 17:08:49 GMT 54.293781 -4.588790 14,675 307 348 -1920
2018-05-18 17:08:46 GMT 54.290131 -4.580410 14,800 307 349 -2240
2018-05-18 17:08:43 GMT 54.287823 -4.575556 14,875 307 349 -2432
2018-05-18 17:08:40 GMT 54.284332 -4.567399 15,025 307 349 -2496
2018-05-18 17:08:37 GMT 54.280655 -4.558827 15,175 307 349 -2624
2018-05-18 17:08:34 GMT 54.279724 -4.557079 15,225 307 349 -2624
2018-05-18 17:08:31 GMT 54.275436 -4.546927 15,425 308 348 -2432
2018-05-18 17:08:28 GMT 54.273670 -4.543008 15,575 308 348 -2304
2018-05-18 17:08:23 GMT 54.268250 -4.531154 15,950 308 349 -2176
2018-05-18 17:08:20 GMT 54.265896 -4.525398 15,850 308 349 -2176
2018-05-18 17:08:16 GMT 54.262032 -4.516593 15,950 308 350 -2496
2018-05-18 17:08:13 GMT 54.258541 -4.508595 16,125 307 350 -2560
2018-05-18 17:08:10 GMT 54.255795 -4.502456 16,200 307 350 -2560
2018-05-18 17:08:06 GMT 54.252117 -4.494539 16,400 307 350 -2112
2018-05-18 17:08:03 GMT 54.248440 -4.485653 16,550 307 351 -1920
2018-05-18 17:07:59 GMT 54.245499 -4.478969 16,875 307 353 -1600
2018-05-18 17:07:56 GMT 54.242203 -4.471436 16,700 307 353 -1600
2018-05-18 17:07:53 GMT 54.240108 -4.466912 16,750 307 354 -1664
2018-05-18 17:07:50 GMT 54.236572 -4.458330 16,925 307 355 -1984
2018-05-18 17:07:47 GMT 54.234287 -4.453340 17,025 307 357 -1984
2018-05-18 17:07:44 GMT 54.230934 -4.445181 17,125 307 357 -1984
2018-05-18 17:07:41 GMT 54.227444 -4.437022 17,175 307 358 -1920
2018-05-18 17:07:38 GMT 54.224899 -4.431257 17,300 307 360 -1728
2018-05-18 17:07:35 GMT 54.220596 -4.420977 17,375 307 360 -1728
2018-05-18 17:07:32 GMT 54.218811 -4.417524 17,475 307 361 -1664
2018-05-18 17:07:28 GMT 54.215469 -4.409049 17,550 307 363 -1600
2018-05-18 17:07:25 GMT 54.212082 -4.401155 17,700 307 365 -1536
2018-05-18 17:07:22 GMT 54.208496 -4.392754 17,850 307 367 -1664
2018-05-18 17:07:19 GMT 54.206726 -4.388489 18,050 306 370 -2688
2018-05-18 17:07:16 GMT 54.203751 -4.381445 17,875 306 368 -1856
2018-05-18 17:07:13 GMT 54.200546 -4.374599 17,925 306 370 -2368
2018-05-18 17:07:10 GMT 54.196533 -4.364642 18,125 306 370 -2304
2018-05-18 17:07:07 GMT 54.194115 -4.358987 18,175 306 370 -2368
2018-05-18 17:07:03 GMT 54.188553 -4.346191 18,400 306 370 -2560
2018-05-18 17:07:00 GMT 54.186527 -4.340892 18,525 306 370 -2688
2018-05-18 17:06:57 GMT 54.183517 -4.333949 18,675 306 370 -2752
2018-05-18 17:06:52 GMT 54.178520 -4.321989 18,850 306 369 -2560
2018-05-18 17:06:49 GMT 54.176331 -4.316921 19,125 306 371 -2176
2018-05-18 17:06:46 GMT 54.173306 -4.309872 19,050 306 371 -2240
2018-05-18 17:06:43 GMT 54.169922 -4.301618 19,250 306 371 -2176
2018-05-18 17:06:40 GMT 54.167496 -4.296125 19,325 306 371 -2112
2018-05-18 17:06:37 GMT 54.164322 -4.288869 19,525 307 372 -2112
2018-05-18 17:06:34 GMT 54.161247 -4.281275 19,525 307 372 -2176
2018-05-18 17:06:31 GMT 54.157570 -4.272955 19,675 307 374 -2304
2018-05-18 17:06:28 GMT 54.154682 -4.266330 19,775 307 373 -2176
2018-05-18 17:06:25 GMT 54.152435 -4.261204 19,875 307 374 -2240
2018-05-18 17:06:22 GMT 54.149284 -4.253971 20,250 307 375 -2496
2018-05-18 17:06:19 GMT 54.144928 -4.244254 20,075 307 375 -2368
2018-05-18 17:06:16 GMT 54.143230 -4.239996 20,150 307 375 -2432
2018-05-18 17:06:12 GMT 54.138245 -4.229030 20,525 307 375 -2560
2018-05-18 17:06:09 GMT 54.133877 -4.219235 20,550 307 375 -2688
2018-05-18 17:06:06 GMT 54.132843 -4.216867 20,600 307 375 -2688
2018-05-18 17:06:03 GMT 54.129089 -4.208391 20,900 307 374 -2624
2018-05-18 17:06:00 GMT 54.125793 -4.200858 20,850 307 375 -2688
2018-05-18 17:05:57 GMT 54.121628 -4.191441 21,100 307 375 -2432
2018-05-18 17:05:54 GMT 54.120190 -4.188053 21,175 307 375 -2304
2018-05-18 17:05:51 GMT 54.116135 -4.179042 21,325 306 375 -2304
2018-05-18 17:05:48 GMT 54.113716 -4.172785 21,375 306 375 -2240
2018-05-18 17:05:45 GMT 54.111298 -4.166969 21,550 305 377 -2176
2018-05-18 17:05:42 GMT 54.108307 -4.159816 21,675 306 378 -2112
2018-05-18 17:05:39 GMT 54.104141 -4.149929 21,775 306 379 -2048
2018-05-18 17:05:35 GMT 54.100868 -4.141684 21,875 306 379 -2048
2018-05-18 17:05:32 GMT 54.097824 -4.134391 21,950 306 380 -2176
2018-05-18 17:05:29 GMT 54.093704 -4.124660 22,050 306 381 -2176
2018-05-18 17:05:26 GMT 54.090408 -4.116891 22,350 306 382 -2048
2018-05-18 17:05:23 GMT 54.088348 -4.112026 22,275 306 382 -1984
2018-05-18 17:05:20 GMT 54.085419 -4.105198 22,425 307 384 -1856
2018-05-18 17:05:17 GMT 54.080841 -4.094448 22,475 307 385 -1920
2018-05-18 17:05:14 GMT 54.078918 -4.089582 22,575 307 386 -1920
2018-05-18 17:05:11 GMT 54.076218 -4.083697 22,600 307 387 -1920
2018-05-18 17:05:07 GMT 54.072239 -4.074554 22,725 307 388 -1856
2018-05-18 17:05:04 GMT 54.068207 -4.065020 22,975 307 390 -1792
2018-05-18 17:05:01 GMT 54.065163 -4.057590 22,925 307 390 -1856
2018-05-18 17:04:58 GMT 54.061386 -4.049325 23,075 307 392 -2048
2018-05-18 17:04:55 GMT 54.057297 -4.039737 23,175 307 393 -2304
2018-05-18 17:04:52 GMT 54.054062 -4.032296 23,250 307 393 -2496
2018-05-18 17:04:49 GMT 54.051865 -4.027352 23,375 307 392 -3200
2018-05-18 17:04:46 GMT 54.047752 -4.018088 23,575 308 391 -3648
2018-05-18 17:04:43 GMT 54.046829 -4.015817 23,650 308 390 -3712
2018-05-18 17:04:40 GMT 54.041428 -4.003967 23,975 308 387 -3712
2018-05-18 17:04:37 GMT 54.039047 -3.998317 24,225 306 385 -3072
2018-05-18 17:04:34 GMT 54.035324 -3.989814 24,325 306 385 -3072
2018-05-18 17:04:31 GMT 54.032856 -3.983917 24,425 305 385 -2368
2018-05-18 17:04:28 GMT 54.029598 -3.976081 24,550 305 384 -2176
2018-05-18 17:04:25 GMT 54.027225 -3.969942 24,625 304 385 -2176
2018-05-18 17:04:22 GMT 54.023731 -3.960814 24,750 303 385 -2112
2018-05-18 17:04:19 GMT 54.021824 -3.955805 24,825 302 386 -2048
2018-05-18 17:04:16 GMT 54.018173 -3.945975 24,975 301 387 -1856
2018-05-18 17:04:12 GMT 54.014557 -3.935460 25,125 301 389 -1728
2018-05-18 17:04:09 GMT 54.012909 -3.930359 25,175 301 389 -1728
2018-05-18 17:04:06 GMT 54.009350 -3.920180 25,300 300 391 -1664
2018-05-18 17:04:03 GMT 54.006271 -3.911290 25,350 300 392 -1728
2018-05-18 17:04:00 GMT 54.003902 -3.904186 25,450 300 393 -1856
2018-05-18 17:03:57 GMT 54.001015 -3.895703 25,800 301 393 -2112
2018-05-18 17:03:54 GMT 53.998642 -3.888352 25,850 300 394 -2176
2018-05-18 17:03:51 GMT 53.996475 -3.882490 25,750 300 394 -2240
2018-05-18 17:03:48 GMT 53.993225 -3.872838 25,825 300 394 -2240
2018-05-18 17:03:45 GMT 53.989929 -3.863028 26,000 300 396 -2240
2018-05-18 17:03:42 GMT 53.987366 -3.855495 26,150 300 396 -2240
2018-05-18 17:03:39 GMT 53.985168 -3.849060 26,200 301 396 -2176
2018-05-18 17:03:36 GMT 53.981506 -3.838466 26,325 301 397 -2112
2018-05-18 17:03:33 GMT 53.979275 -3.831482 26,400 301 397 -2048
2018-05-18 17:03:30 GMT 53.977272 -3.826070 26,475 301 397 -1920
2018-05-18 17:03:27 GMT 53.973362 -3.814195 26,600 301 399 -1792
2018-05-18 17:03:23 GMT 53.969696 -3.803859 26,800 301 401 -1792
2018-05-18 17:03:19 GMT 53.965988 -3.793030 27,025 301 402 -1792
2018-05-18 17:03:16 GMT 53.963928 -3.786438 26,975 301 403 -1920
2018-05-18 17:03:13 GMT 53.960934 -3.778247 27,000 301 403 -1920
2018-05-18 17:03:10 GMT 53.958664 -3.771136 27,125 301 404 -2048
2018-05-18 17:03:07 GMT 53.955505 -3.762347 27,700 301 405 -2112
2018-05-18 17:03:03 GMT 53.951344 -3.749731 27,400 301 406 -2112
2018-05-18 17:03:00 GMT 53.948868 -3.742571 27,450 301 407 -2048
2018-05-18 17:02:56 GMT 53.945618 -3.733251 27,625 301 408 -2048
2018-05-18 17:02:53 GMT 53.941475 -3.721134 27,750 301 409 -2048
2018-05-18 17:02:50 GMT 53.938637 -3.713379 27,825 301 409 -2048
2018-05-18 17:02:46 GMT 53.935776 -3.705061 27,975 301 410 -2048
2018-05-18 17:02:42 GMT 53.929462 -3.686721 28,150 301 412 -2048
2018-05-18 17:02:38 GMT 53.927353 -3.680734 28,225 301 414 -2048
2018-05-18 17:02:33 GMT 53.923084 -3.667899 28,975 301 414 -2048
2018-05-18 17:02:30 GMT 53.919022 -3.655936 28,525 301 415 -2112
2018-05-18 17:02:27 GMT 53.916897 -3.649804 28,650 301 415 -2240
2018-05-18 17:02:24 GMT 53.913208 -3.639300 28,725 301 416 -2432
2018-05-18 17:02:21 GMT 53.911285 -3.633493 28,950 301 416 -2624
2018-05-18 17:02:18 GMT 53.908607 -3.626135 29,000 301 416 -2624
2018-05-18 17:02:15 GMT 53.905472 -3.616778 29,125 301 416 -2496
2018-05-18 17:02:12 GMT 53.901993 -3.606655 29,225 301 416 -2432
2018-05-18 17:02:09 GMT 53.899483 -3.599315 29,500 301 416 -2368
2018-05-18 17:02:06 GMT 53.896366 -3.590187 29,600 301 418 -2176
2018-05-18 17:02:03 GMT 53.893066 -3.580601 29,650 301 420 -1856
2018-05-18 17:02:00 GMT 53.890732 -3.574009 29,725 301 418 -1984
2018-05-18 17:01:57 GMT 53.888763 -3.568202 29,925 301 422 -2048
2018-05-18 17:01:54 GMT 53.884460 -3.555725 29,900 301 420 -1856
2018-05-18 17:01:51 GMT 53.880890 -3.545524 30,375 301 425 -2432
2018-05-18 17:01:48 GMT 53.878738 -3.540030 30,100 301 422 -1984
2018-05-18 17:01:45 GMT 53.875717 -3.530770 30,200 301 424 -1920
2018-05-18 17:01:42 GMT 53.872787 -3.522923 30,275 301 424 -2176
2018-05-18 17:01:39 GMT 53.870132 -3.514919 30,375 301 425 -2432
2018-05-18 17:01:36 GMT 53.867157 -3.506757 30,525 301 424 -3072
2018-05-18 17:01:33 GMT 53.864136 -3.497811 30,725 301 424 -3200
2018-05-18 17:01:30 GMT 53.860752 -3.488159 30,800 301 423 -3200
2018-05-18 17:01:26 GMT 53.857590 -3.479449 31,025 301 421 -3392
2018-05-18 17:01:23 GMT 53.853630 -3.467560 31,275 301 419 -3136
2018-05-18 17:01:20 GMT 53.850677 -3.459045 31,375 301 419 -2944
2018-05-18 17:01:16 GMT 53.846741 -3.447824 31,600 301 418 -2304
2018-05-18 17:01:13 GMT 53.843807 -3.439448 31,750 301 417 -1536
2018-05-18 17:01:09 GMT 53.840057 -3.428755 31,850 301 417 -1216
2018-05-18 17:01:05 GMT 53.835800 -3.417152 31,975 301 419 -128
2018-05-18 17:01:02 GMT 53.832684 -3.407943 32,000 301 419 -256
2018-05-18 17:00:59 GMT 53.831497 -3.404192 31,975 301 419 -256
2018-05-18 17:00:56 GMT 53.827236 -3.392271 32,000 301 420 0
2018-05-18 17:00:53 GMT 53.824627 -3.384193 32,000 301 421 0
2018-05-18 17:00:50 GMT 53.822300 -3.377407 32,000 301 424 0
2018-05-18 17:00:47 GMT 53.818954 -3.367859 32,000 301 423 0
2018-05-18 17:00:43 GMT 53.813782 -3.353027 32,000 301 424 -64
2018-05-18 17:00:40 GMT 53.811829 -3.347922 32,000 301 425 0
2018-05-18 17:00:37 GMT 53.809219 -3.339763 32,000 301 425 64
2018-05-18 17:00:34 GMT 53.806229 -3.331133 32,000 301 427 0
2018-05-18 17:00:31 GMT 53.802841 -3.321587 32,000 301 427 0
2018-05-18 17:00:28 GMT 53.799408 -3.311593 32,000 301 428 0
2018-05-18 17:00:25 GMT 53.797028 -3.304923 32,000 301 429 0
2018-05-18 17:00:22 GMT 53.794788 -3.298564 32,000 301 428 0
2018-05-18 17:00:19 GMT 53.791809 -3.289934 32,000 301 429 0
2018-05-18 17:00:15 GMT 53.786781 -3.275380 32,000 301 429 0
2018-05-18 17:00:12 GMT 53.784576 -3.269217 32,000 301 428 0
2018-05-18 17:00:09 GMT 53.781567 -3.260597 32,000 301 428 0
2018-05-18 17:00:06 GMT 53.778534 -3.251953 32,000 301 429 0
2018-05-18 17:00:03 GMT 53.774918 -3.241595 32,000 301 429 0
2018-05-18 17:00:00 GMT 53.771667 -3.232335 32,000 301 429 -64
2018-05-18 16:59:57 GMT 53.769463 -3.225861 32,000 301 429 0
2018-05-18 16:59:54 GMT 53.765625 -3.215070 32,000 301 429 -64
2018-05-18 16:59:51 GMT 53.762833 -3.206988 32,000 300 429 -64
2018-05-18 16:59:48 GMT 53.758663 -3.194840 32,000 300 428 -64
2018-05-18 16:59:45 GMT 53.757080 -3.190236 32,000 299 429 0
2018-05-18 16:59:42 GMT 53.753078 -3.178522 32,000 299 427 -64
2018-05-18 16:59:39 GMT 53.750793 -3.170968 32,000 299 427 -64
2018-05-18 16:59:36 GMT 53.747955 -3.162807 32,000 299 427 0
2018-05-18 16:59:33 GMT 53.745258 -3.154046 32,000 299 427 0
2018-05-18 16:59:30 GMT 53.742416 -3.145229 32,000 299 427 0
2018-05-18 16:59:27 GMT 53.739948 -3.137647 32,000 299 427 0
2018-05-18 16:59:24 GMT 53.737484 -3.130619 32,000 299 428 0
2018-05-18 16:59:21 GMT 53.734272 -3.120117 32,000 299 427 0
2018-05-18 16:59:18 GMT 53.731018 -3.110151 32,000 299 427 0
2018-05-18 16:59:14 GMT 53.726265 -3.095560 32,000 299 427 64
2018-05-18 16:59:11 GMT 53.724354 -3.089743 32,000 299 429 0
2018-05-18 16:59:07 GMT 53.720718 -3.078605 32,000 299 428 0
2018-05-18 16:59:04 GMT 53.717094 -3.067528 32,000 299 429 -64
2018-05-18 16:59:01 GMT 53.714672 -3.060500 32,000 299 429 0
2018-05-18 16:58:57 GMT 53.710419 -3.047058 32,000 299 429 -64
2018-05-18 16:58:54 GMT 53.709087 -3.042971 32,000 299 428 0
2018-05-18 16:58:51 GMT 53.705475 -3.031913 32,000 299 429 0
2018-05-18 16:58:48 GMT 53.702614 -3.023098 32,000 299 429 0
2018-05-18 16:58:45 GMT 53.698792 -3.012059 32,000 299 429 0
2018-05-18 16:58:42 GMT 53.696468 -3.004438 32,000 299 429 0
2018-05-18 16:58:39 GMT 53.693985 -2.996835 32,000 299 429 0
2018-05-18 16:58:36 GMT 53.690605 -2.986908 32,000 299 429 0
2018-05-18 16:58:32 GMT 53.686554 -2.974064 32,000 299 429 0
2018-05-18 16:58:29 GMT 53.683716 -2.965905 32,000 299 429 0
2018-05-18 16:58:25 GMT 53.677917 -2.947789 32,000 299 429 0
2018-05-18 16:58:22 GMT 53.676594 -2.943690 32,000 299 429 0
2018-05-18 16:58:19 GMT 53.673893 -2.935531 32,000 299 429 0
2018-05-18 16:58:16 GMT 53.672012 -2.930211 32,000 299 429 0
2018-05-18 16:58:13 GMT 53.669331 -2.921475 32,000 299 429 0
2018-05-18 16:58:10 GMT 53.665878 -2.911534 32,000 299 429 0
2018-05-18 16:58:06 GMT 53.661804 -2.898664 32,000 299 429 0
2018-05-18 16:58:01 GMT 53.657227 -2.884696 32,000 299 429 0
2018-05-18 16:57:58 GMT 53.654160 -2.875357 32,000 299 429 0
2018-05-18 16:57:55 GMT 53.652431 -2.870097 32,000 299 429 0
2018-05-18 16:57:52 GMT 53.648010 -2.857172 32,000 299 429 0
2018-05-18 16:57:49 GMT 53.645123 -2.847882 32,000 300 430 0
2018-05-18 16:57:46 GMT 53.642029 -2.839103 32,000 300 430 0
2018-05-18 16:57:43 GMT 53.640095 -2.832695 32,000 300 430 0
2018-05-18 16:57:40 GMT 53.636673 -2.822702 32,000 300 430 0
2018-05-18 16:57:37 GMT 53.634136 -2.815327 32,000 300 430 0
2018-05-18 16:57:34 GMT 53.630630 -2.804025 32,000 300 430 0
2018-05-18 16:57:31 GMT 53.628506 -2.797636 32,000 300 430 0
2018-05-18 16:57:28 GMT 53.624641 -2.785923 32,000 300 430 0
2018-05-18 16:57:25 GMT 53.622917 -2.781237 32,000 300 430 0
2018-05-18 16:57:22 GMT 53.620029 -2.771948 32,000 300 430 0
2018-05-18 16:57:19 GMT 53.616714 -2.761963 32,000 300 430 0
2018-05-18 16:57:16 GMT 53.613422 -2.752075 32,000 300 430 0
2018-05-18 16:57:13 GMT 53.610352 -2.743286 32,000 300 431 0
2018-05-18 16:57:10 GMT 53.607651 -2.735125 32,000 300 431 -64
2018-05-18 16:57:07 GMT 53.604950 -2.726964 32,025 300 431 -64
2018-05-18 16:57:04 GMT 53.602432 -2.718724 32,025 300 430 -64
2018-05-18 16:57:01 GMT 53.599129 -2.708857 32,025 300 430 0
2018-05-18 16:56:58 GMT 53.596619 -2.701224 32,025 300 430 0
2018-05-18 16:56:55 GMT 53.592178 -2.688433 32,025 300 430 0
2018-05-18 16:56:52 GMT 53.591400 -2.685511 32,025 300 430 0
2018-05-18 16:56:49 GMT 53.587910 -2.675009 32,025 300 431 0
2018-05-18 16:56:46 GMT 53.584419 -2.664427 32,025 300 431 0
2018-05-18 16:56:43 GMT 53.581951 -2.657480 32,025 300 430 0
2018-05-18 16:56:39 GMT 53.577667 -2.644017 32,025 300 430 0
2018-05-18 16:56:36 GMT 53.575562 -2.638210 32,025 300 430 0
2018-05-18 16:56:33 GMT 53.571442 -2.625340 32,025 300 431 0
2018-05-18 16:56:29 GMT 53.568329 -2.616002 32,025 300 431 0
2018-05-18 16:56:26 GMT 53.565239 -2.607233 32,025 300 431 0
2018-05-18 16:56:23 GMT 53.562168 -2.597863 32,025 300 431 64
2018-05-18 16:56:20 GMT 53.559422 -2.589704 32,025 300 431 0
2018-05-18 16:56:17 GMT 53.557278 -2.582756 32,025 300 431 64
2018-05-18 16:56:14 GMT 53.553406 -2.571664 32,025 300 431 0
2018-05-18 16:56:11 GMT 53.552032 -2.566956 32,025 300 431 64
2018-05-18 16:56:08 GMT 53.547592 -2.554164 32,025 300 431 0
2018-05-18 16:56:05 GMT 53.545258 -2.547180 32,000 300 431 0
2018-05-18 16:56:02 GMT 53.542145 -2.537842 32,000 300 432 0
2018-05-18 16:55:59 GMT 53.539993 -2.530779 32,000 300 432 0
2018-05-18 16:55:56 GMT 53.536880 -2.521441 32,000 300 432 0
2018-05-18 16:55:53 GMT 53.533398 -2.511588 32,000 300 432 0
2018-05-18 16:55:50 GMT 53.530106 -2.501665 32,000 300 431 0
2018-05-18 16:55:47 GMT 53.527771 -2.494681 32,000 300 431 0
2018-05-18 16:55:44 GMT 53.524017 -2.482989 32,000 300 431 0
2018-05-18 16:55:41 GMT 53.521912 -2.477182 32,000 300 431 0
2018-05-18 16:55:38 GMT 53.519348 -2.469020 32,000 300 431 64
2018-05-18 16:55:35 GMT 53.515896 -2.459080 32,000 300 431 0
2018-05-18 16:55:31 GMT 53.512169 -2.447285 32,000 300 431 0
2018-05-18 16:55:28 GMT 53.508633 -2.436945 32,000 300 431 0
2018-05-18 16:55:25 GMT 53.506306 -2.429998 32,000 300 431 0
2018-05-18 16:55:22 GMT 53.503185 -2.420627 32,000 300 431 64
2018-05-18 16:55:19 GMT 53.500439 -2.412468 32,000 300 431 64
2018-05-18 16:55:16 GMT 53.497375 -2.403730 32,000 300 431 64
2018-05-18 16:55:13 GMT 53.494629 -2.395647 32,000 300 431 64
2018-05-18 16:55:10 GMT 53.492432 -2.388663 32,000 300 431 0
2018-05-18 16:55:07 GMT 53.488770 -2.378226 32,000 300 430 0
2018-05-18 16:55:04 GMT 53.485245 -2.367711 32,000 300 430 0
2018-05-18 16:55:01 GMT 53.482887 -2.360203 32,000 300 430 0
2018-05-18 16:54:58 GMT 53.479351 -2.349701 32,000 300 430 0
2018-05-18 16:54:55 GMT 53.477394 -2.343965 32,000 300 430 0
2018-05-18 16:54:52 GMT 53.474075 -2.334045 31,975 300 430 0
2018-05-18 16:54:49 GMT 53.470737 -2.324174 32,000 300 429 -64
2018-05-18 16:54:46 GMT 53.468597 -2.318438 32,000 300 430 -64
2018-05-18 16:54:43 GMT 53.464874 -2.306806 32,000 300 430 -64
2018-05-18 16:54:40 GMT 53.462543 -2.299697 32,000 300 429 0
2018-05-18 16:54:37 GMT 53.459061 -2.290022 32,000 300 429 -64
2018-05-18 16:54:34 GMT 53.456314 -2.281939 32,000 300 429 -64
2018-05-18 16:54:31 GMT 53.453934 -2.274251 32,000 300 429 0
2018-05-18 16:54:28 GMT 53.450256 -2.263991 32,000 300 429 0
2018-05-18 16:54:25 GMT 53.447510 -2.255913 32,000 300 429 0
2018-05-18 16:54:22 GMT 53.444366 -2.246076 32,000 300 429 0
2018-05-18 16:54:19 GMT 53.442032 -2.239171 32,000 300 429 0
2018-05-18 16:54:16 GMT 53.439129 -2.230467 32,000 300 429 -64
2018-05-18 16:54:13 GMT 53.435032 -2.218915 32,000 300 429 0
2018-05-18 16:54:10 GMT 53.432693 -2.211391 32,000 300 429 0
2018-05-18 16:54:07 GMT 53.430359 -2.204485 32,000 300 429 0
2018-05-18 16:54:04 GMT 53.427612 -2.196402 32,000 300 429 -64
2018-05-18 16:54:01 GMT 53.424088 -2.185965 32,000 300 429 -64
2018-05-18 16:53:57 GMT 53.420197 -2.174430 32,000 300 429 -64
2018-05-18 16:53:54 GMT 53.417622 -2.166972 32,000 300 429 -64
2018-05-18 16:53:51 GMT 53.413570 -2.155421 32,025 300 428 0
2018-05-18 16:53:48 GMT 53.411011 -2.147181 32,025 300 429 -64
2018-05-18 16:53:45 GMT 53.408871 -2.141607 32,025 300 428 0
2018-05-18 16:53:42 GMT 53.405148 -2.130136 32,025 300 428 0
2018-05-18 16:53:39 GMT 53.402206 -2.121460 32,025 300 428 0
2018-05-18 16:53:36 GMT 53.399048 -2.112279 32,025 300 428 0
2018-05-18 16:53:33 GMT 53.397491 -2.107727 32,000 300 428 0
2018-05-18 16:53:30 GMT 53.393555 -2.096191 32,025 300 428 0
2018-05-18 16:53:26 GMT 53.389481 -2.084734 32,000 300 428 64
2018-05-18 16:53:23 GMT 53.386917 -2.076651 32,000 300 428 64
2018-05-18 16:53:20 GMT 53.384171 -2.068412 32,000 300 429 64
2018-05-18 16:53:17 GMT 53.380844 -2.058644 32,000 300 428 64
2018-05-18 16:53:14 GMT 53.378845 -2.053070 32,000 300 428 0
2018-05-18 16:53:11 GMT 53.375153 -2.042123 32,000 300 428 0
2018-05-18 16:53:08 GMT 53.372189 -2.033521 32,000 300 428 0
2018-05-18 16:53:05 GMT 53.368698 -2.023603 32,000 300 428 -64
2018-05-18 16:53:02 GMT 53.366913 -2.018032 32,000 300 428 -64
2018-05-18 16:52:59 GMT 53.363342 -2.007673 32,000 300 428 -64
2018-05-18 16:52:56 GMT 53.359245 -1.995634 32,000 300 428 -64
2018-05-18 16:52:53 GMT 53.357662 -1.991030 32,000 300 428 0
2018-05-18 16:52:50 GMT 53.354916 -1.983032 32,000 300 428 0
2018-05-18 16:52:47 GMT 53.351807 -1.974243 32,000 300 427 0
2018-05-18 16:52:44 GMT 53.348053 -1.962943 32,000 300 427 0
2018-05-18 16:52:41 GMT 53.346256 -1.957828 32,000 300 427 0
2018-05-18 16:52:38 GMT 53.343140 -1.948458 32,000 300 427 0
2018-05-18 16:52:35 GMT 53.340206 -1.940622 32,000 300 427 0
2018-05-18 16:52:32 GMT 53.337460 -1.932624 32,000 300 427 0
2018-05-18 16:52:29 GMT 53.333920 -1.922123 32,000 300 427 0
2018-05-18 16:52:26 GMT 53.331116 -1.913583 32,000 300 427 0
2018-05-18 16:52:23 GMT 53.327778 -1.903866 32,000 300 427 0
2018-05-18 16:52:20 GMT 53.325031 -1.895869 32,000 300 427 0
2018-05-18 16:52:17 GMT 53.322517 -1.889164 32,000 300 427 0
2018-05-18 16:52:14 GMT 53.319538 -1.879793 32,000 300 427 0
2018-05-18 16:52:11 GMT 53.315643 -1.868931 32,000 301 427 0
2018-05-18 16:52:08 GMT 53.313251 -1.861698 32,000 301 427 0
2018-05-18 16:52:05 GMT 53.311066 -1.855882 32,000 303 428 0
2018-05-18 16:52:02 GMT 53.306828 -1.843522 32,000 303 428 0
2018-05-18 16:51:59 GMT 53.303558 -1.835266 32,000 305 428 0
2018-05-18 16:51:56 GMT 53.300858 -1.828753 32,000 306 428 0
2018-05-18 16:51:53 GMT 53.296646 -1.819022 32,000 308 429 64
2018-05-18 16:51:50 GMT 53.294220 -1.813921 32,000 309 429 64
2018-05-18 16:51:47 GMT 53.290672 -1.806039 32,000 311 429 64
2018-05-18 16:51:44 GMT 53.286949 -1.798930 32,000 311 429 64
2018-05-18 16:51:41 GMT 53.281586 -1.788417 31,975 316 430 0
2018-05-18 16:51:38 GMT 53.277786 -1.781669 31,975 314 430 64
2018-05-18 16:51:35 GMT 53.274399 -1.776018 32,000 317 430 -64
2018-05-18 16:51:32 GMT 53.269867 -1.768406 31,975 317 430 -64
2018-05-18 16:51:29 GMT 53.265930 -1.762129 31,975 319 431 -64
2018-05-18 16:51:26 GMT 53.261765 -1.755929 31,975 320 431 -64
2018-05-18 16:51:23 GMT 53.255676 -1.747375 32,000 321 432 -64
2018-05-18 16:51:20 GMT 53.250408 -1.740121 32,000 322 431 -64
2018-05-18 16:51:17 GMT 53.243565 -1.730993 32,000 322 431 0
2018-05-18 16:51:14 GMT 53.241989 -1.728934 32,000 322 431 0
2018-05-18 16:51:11 GMT 53.237930 -1.723561 32,000 322 431 0
2018-05-18 16:51:08 GMT 53.232605 -1.716535 32,000 322 431 0
2018-05-18 16:51:05 GMT 53.228256 -1.710807 32,000 322 431 0
2018-05-18 16:51:02 GMT 53.223591 -1.704577 32,000 322 431 0
2018-05-18 16:50:59 GMT 53.219696 -1.699271 32,000 322 431 0
2018-05-18 16:50:56 GMT 53.215164 -1.693464 32,000 322 431 0
2018-05-18 16:50:53 GMT 53.209862 -1.686482 32,000 322 431 0
2018-05-18 16:50:50 GMT 53.206421 -1.681928 32,000 322 431 -64
2018-05-18 16:50:47 GMT 53.200504 -1.674123 32,000 322 431 -64
2018-05-18 16:50:44 GMT 53.196442 -1.668745 32,000 322 431 -64
2018-05-18 16:50:41 GMT 53.189575 -1.659720 32,000 322 431 -64
2018-05-18 16:50:38 GMT 53.184540 -1.653207 32,000 322 431 0
2018-05-18 16:50:35 GMT 53.181427 -1.649048 32,000 322 431 0
2018-05-18 16:50:32 GMT 53.175797 -1.641671 32,000 322 431 0
2018-05-18 16:50:29 GMT 53.172989 -1.638013 32,000 322 431 0
2018-05-18 16:50:26 GMT 53.166752 -1.629773 32,000 322 431 0
2018-05-18 16:50:23 GMT 53.162979 -1.624926 32,000 322 431 0
2018-05-18 16:50:20 GMT 53.157349 -1.617494 32,000 322 431 0
2018-05-18 16:50:17 GMT 53.154228 -1.613455 32,000 322 431 0
2018-05-18 16:50:14 GMT 53.148598 -1.606023 32,000 322 430 0
2018-05-18 16:50:11 GMT 53.142700 -1.598275 32,000 322 430 0
2018-05-18 16:50:08 GMT 53.140823 -1.595764 32,000 322 430 0
2018-05-18 16:50:05 GMT 53.134258 -1.587201 32,000 322 430 0
2018-05-18 16:50:02 GMT 53.128922 -1.580226 32,000 322 430 0
2018-05-18 16:49:59 GMT 53.125214 -1.575283 32,000 322 430 0
2018-05-18 16:49:56 GMT 53.119583 -1.567906 32,000 322 430 0
2018-05-18 16:49:53 GMT 53.115543 -1.562563 32,000 322 430 0
2018-05-18 16:49:50 GMT 53.110840 -1.556449 32,000 322 430 0
2018-05-18 16:49:47 GMT 53.103024 -1.546245 32,000 322 430 0
2018-05-18 16:49:44 GMT 53.101456 -1.544128 32,000 322 431 0
2018-05-18 16:49:41 GMT 53.096783 -1.537844 32,000 322 431 0
2018-05-18 16:49:38 GMT 53.092712 -1.532669 32,000 322 431 0
2018-05-18 16:49:34 GMT 53.083656 -1.520822 32,000 322 431 0
2018-05-18 16:49:31 GMT 53.082092 -1.518784 32,000 322 431 0
2018-05-18 16:49:28 GMT 53.078026 -1.513445 32,000 322 431 0
2018-05-18 16:49:25 GMT 53.072994 -1.506932 32,000 322 431 0
2018-05-18 16:49:22 GMT 53.067410 -1.499555 32,000 322 431 0
2018-05-18 16:49:19 GMT 53.062382 -1.493042 32,000 322 431 0
2018-05-18 16:49:16 GMT 53.058613 -1.488098 32,000 322 430 0
2018-05-18 16:49:13 GMT 53.053940 -1.482010 32,000 322 429 0
2018-05-18 16:49:10 GMT 53.048649 -1.475071 32,000 322 430 0
2018-05-18 16:49:07 GMT 53.043961 -1.468964 32,000 322 430 0
2018-05-18 16:49:04 GMT 53.038971 -1.462479 32,000 322 429 0
2018-05-18 16:49:01 GMT 53.033661 -1.455532 32,000 322 429 0
2018-05-18 16:48:58 GMT 53.029282 -1.449881 32,000 322 429 0
2018-05-18 16:48:55 GMT 53.026165 -1.445801 32,000 322 428 0
2018-05-18 16:48:52 GMT 53.021183 -1.439287 32,000 322 434 1216
2018-05-18 16:48:49 GMT 53.016853 -1.433637 32,000 322 428 0
2018-05-18 16:48:46 GMT 53.012146 -1.427536 32,000 322 429 0
2018-05-18 16:48:43 GMT 53.006428 -1.419826 32,000 322 429 0
2018-05-18 16:48:40 GMT 53.001865 -1.414097 32,000 322 429 0
2018-05-18 16:48:37 GMT 52.998138 -1.409232 32,000 322 429 0
2018-05-18 16:48:34 GMT 52.991592 -1.400757 32,000 322 428 0
2018-05-18 16:48:31 GMT 52.987526 -1.395499 32,000 322 428 0
2018-05-18 16:48:28 GMT 52.981941 -1.388201 32,000 322 428 0
2018-05-18 16:48:25 GMT 52.978821 -1.384120 32,000 322 428 0
2018-05-18 16:48:22 GMT 52.973511 -1.377258 32,000 322 429 0
2018-05-18 16:48:19 GMT 52.968861 -1.371172 32,000 322 429 64
2018-05-18 16:48:16 GMT 52.963531 -1.364212 32,000 322 430 192
2018-05-18 16:48:13 GMT 52.959183 -1.358414 32,000 322 430 256
2018-05-18 16:48:10 GMT 52.954475 -1.352495 31,975 322 431 384
2018-05-18 16:48:07 GMT 52.951035 -1.347809 31,975 322 433 576
2018-05-18 16:48:04 GMT 52.944763 -1.339874 31,950 322 433 448
2018-05-18 16:48:01 GMT 52.939728 -1.333313 31,925 323 433 640
2018-05-18 16:47:58 GMT 52.936569 -1.329269 31,875 323 433 768
2018-05-18 16:47:55 GMT 52.930546 -1.321498 31,850 322 434 1088
2018-05-18 16:47:52 GMT 52.925995 -1.315384 31,825 322 434 1152
2018-05-18 16:47:49 GMT 52.921047 -1.309021 31,600 322 433 1216
2018-05-18 16:47:46 GMT 52.916336 -1.303101 31,700 322 434 1216
2018-05-18 16:47:43 GMT 52.913177 -1.298981 31,625 323 433 1280
2018-05-18 16:47:40 GMT 52.908482 -1.292855 31,350 322 433 1216
2018-05-18 16:47:37 GMT 52.903404 -1.286342 31,450 322 433 1216
2018-05-18 16:47:34 GMT 52.898712 -1.280212 31,450 322 433 1280
2018-05-18 16:47:31 GMT 52.893353 -1.273158 31,375 322 433 1344
2018-05-18 16:47:28 GMT 52.888927 -1.267665 31,325 322 433 1472
2018-05-18 16:47:25 GMT 52.885159 -1.262721 31,225 322 433 1728
2018-05-18 16:47:22 GMT 52.880131 -1.256208 31,175 322 433 1920
2018-05-18 16:47:19 GMT 52.874130 -1.248474 30,875 322 435 1984
2018-05-18 16:47:16 GMT 52.870972 -1.244431 30,975 323 433 2048
2018-05-18 16:47:13 GMT 52.865139 -1.236668 30,825 322 435 1984
2018-05-18 16:47:10 GMT 52.860214 -1.230545 30,775 323 436 1920
2018-05-18 16:47:07 GMT 52.857319 -1.226859 30,650 322 436 1792
2018-05-18 16:47:04 GMT 52.851288 -1.219101 30,375 323 437 1792
2018-05-18 16:47:01 GMT 52.846706 -1.212969 30,450 323 437 1728
2018-05-18 16:46:58 GMT 52.839539 -1.203945 30,400 323 437 1664
2018-05-18 16:46:55 GMT 52.836975 -1.200649 30,300 323 437 1472
2018-05-18 16:46:52 GMT 52.832199 -1.194458 30,250 323 437 1344
2018-05-18 16:46:48 GMT 52.825523 -1.185817 30,150 323 437 1280
2018-05-18 16:46:45 GMT 52.820709 -1.179733 30,050 323 437 1280
2018-05-18 16:46:42 GMT 52.814678 -1.171927 29,925 323 437 1344
2018-05-18 16:46:39 GMT 52.811653 -1.167847 29,850 323 436 1408
2018-05-18 16:46:36 GMT 52.807228 -1.161961 29,800 323 436 1600
2018-05-18 16:46:33 GMT 52.801968 -1.155605 29,600 323 436 1600
2018-05-18 16:46:30 GMT 52.798153 -1.150661 29,650 323 436 1728
2018-05-18 16:46:27 GMT 52.793217 -1.144148 29,225 323 438 1920
2018-05-18 16:46:23 GMT 52.784744 -1.133475 29,325 323 438 1920
2018-05-18 16:46:20 GMT 52.782715 -1.130600 29,450 323 438 1920
2018-05-18 16:46:17 GMT 52.776306 -1.122437 29,300 323 438 1920
2018-05-18 16:46:14 GMT 52.771866 -1.116714 29,275 323 438 1856
2018-05-18 16:46:11 GMT 52.765614 -1.108913 28,775 323 439 1600
2018-05-18 16:46:08 GMT 52.760834 -1.102753 29,050 323 439 1728
2018-05-18 16:46:05 GMT 52.757126 -1.097870 28,950 323 439 1600
2018-05-18 16:46:02 GMT 52.753143 -1.092911 28,900 323 439 1600
2018-05-18 16:45:59 GMT 52.748341 -1.086783 28,775 323 439 1472
2018-05-18 16:45:56 GMT 52.742386 -1.078949 28,750 323 439 1408
2018-05-18 16:45:53 GMT 52.736797 -1.071952 28,650 323 439 1344
2018-05-18 16:45:50 GMT 52.733768 -1.067871 28,600 323 439 1216
2018-05-18 16:45:47 GMT 52.728790 -1.061707 28,500 323 438 1216
2018-05-18 16:45:44 GMT 52.723663 -1.055145 28,500 323 438 1216
2018-05-18 16:45:41 GMT 52.719223 -1.049423 28,375 323 436 1152
2018-05-18 16:45:38 GMT 52.714096 -1.042938 28,275 323 436 1152
2018-05-18 16:45:35 GMT 52.708374 -1.035614 28,300 323 435 1152
2018-05-18 16:45:32 GMT 52.705048 -1.031145 28,250 323 436 1152
2018-05-18 16:45:29 GMT 52.698669 -1.022984 28,175 323 435 1152
2018-05-18 16:45:26 GMT 52.695648 -1.019363 27,925 323 433 1280
2018-05-18 16:45:23 GMT 52.689636 -1.011605 28,025 323 434 1280
2018-05-18 16:45:20 GMT 52.686172 -1.007004 28,025 323 434 1280
2018-05-18 16:45:17 GMT 52.681091 -1.000519 27,900 323 433 1280
2018-05-18 16:45:14 GMT 52.675415 -0.993423 27,875 323 433 1280
2018-05-18 16:45:11 GMT 52.670975 -0.987778 27,775 323 432 1216
2018-05-18 16:45:08 GMT 52.667175 -0.982819 27,725 323 431 1152
2018-05-18 16:45:05 GMT 52.662033 -0.975978 27,675 323 431 1152
2018-05-18 16:45:02 GMT 52.656509 -0.969162 27,650 323 431 1152
2018-05-18 16:44:59 GMT 52.651474 -0.962753 27,500 323 428 1152
2018-05-18 16:44:56 GMT 52.646439 -0.956497 27,525 323 429 1088
2018-05-18 16:44:53 GMT 52.642044 -0.950928 27,350 323 428 1152
2018-05-18 16:44:50 GMT 52.637547 -0.944981 27,225 323 427 1152
2018-05-18 16:44:47 GMT 52.632706 -0.939026 27,350 323 427 1216
2018-05-18 16:44:44 GMT 52.629593 -0.935059 27,275 323 426 1216
2018-05-18 16:44:41 GMT 52.622726 -0.926132 27,225 323 426 1216
2018-05-18 16:44:38 GMT 52.619019 -0.921402 27,175 323 425 1216
2018-05-18 16:44:35 GMT 52.613899 -0.914847 27,050 323 425 1216
2018-05-18 16:44:31 GMT 52.607849 -0.907135 27,025 323 424 1280
2018-05-18 16:44:28 GMT 52.603191 -0.901271 26,875 323 423 1280
2018-05-18 16:44:25 GMT 52.598557 -0.895538 26,900 323 422 1216
2018-05-18 16:44:22 GMT 52.594578 -0.890285 26,850 323 422 1216
2018-05-18 16:44:19 GMT 52.590714 -0.885733 26,725 323 421 1280
2018-05-18 16:44:16 GMT 52.586243 -0.879745 26,750 323 421 1280
2018-05-18 16:44:13 GMT 52.581940 -0.874252 26,625 323 419 1344
2018-05-18 16:44:10 GMT 52.575211 -0.865860 26,550 323 419 1344
2018-05-18 16:44:07 GMT 52.571503 -0.860977 26,525 323 419 1344
2018-05-18 16:44:03 GMT 52.565231 -0.853424 26,425 323 417 1344
2018-05-18 16:44:00 GMT 52.560829 -0.847595 26,375 323 418 1344
2018-05-18 16:43:57 GMT 52.555336 -0.840690 26,275 323 415 1408
2018-05-18 16:43:54 GMT 52.551773 -0.836258 26,250 323 417 1344
2018-05-18 16:43:51 GMT 52.546463 -0.829468 26,150 323 415 1408
2018-05-18 16:43:47 GMT 52.538589 -0.819321 26,075 323 415 1472
2018-05-18 16:43:44 GMT 52.536163 -0.816269 26,025 323 415 1472
2018-05-18 16:43:41 GMT 52.531723 -0.810852 25,850 323 414 1536
2018-05-18 16:43:38 GMT 52.527054 -0.804749 25,875 323 414 1536
2018-05-18 16:43:35 GMT 52.523254 -0.800171 25,725 323 413 1600
2018-05-18 16:43:32 GMT 52.519226 -0.794983 25,525 325 412 1728
2018-05-18 16:43:29 GMT 52.514042 -0.788348 25,600 323 413 1664
2018-05-18 16:43:26 GMT 52.508926 -0.781860 25,550 323 412 1664
2018-05-18 16:43:23 GMT 52.505264 -0.777359 25,400 324 412 1728
2018-05-18 16:43:20 GMT 52.498867 -0.769357 25,375 324 412 1728
2018-05-18 16:43:17 GMT 52.495190 -0.764962 25,275 326 411 1728
2018-05-18 16:43:14 GMT 52.489510 -0.758684 25,200 326 411 1728
2018-05-18 16:43:11 GMT 52.485695 -0.754604 25,050 328 411 1792
2018-05-18 16:43:08 GMT 52.481506 -0.750122 25,025 330 411 1856
2018-05-18 16:43:05 GMT 52.476753 -0.745422 24,925 331 411 1856
2018-05-18 16:43:02 GMT 52.470795 -0.739851 24,850 332 411 1856
2018-05-18 16:42:59 GMT 52.467133 -0.736465 24,725 333 412 1856
2018-05-18 16:42:56 GMT 52.460999 -0.731354 24,650 334 411 1728
2018-05-18 16:42:53 GMT 52.456924 -0.728073 24,575 335 411 1728
2018-05-18 16:42:50 GMT 52.451801 -0.723842 24,475 334 411 1664
2018-05-18 16:42:47 GMT 52.446823 -0.720154 24,375 334 411 1664
2018-05-18 16:42:44 GMT 52.441563 -0.715759 24,225 334 410 1664
2018-05-18 16:42:41 GMT 52.436462 -0.711823 24,225 334 410 1664
2018-05-18 16:42:38 GMT 52.429363 -0.705793 24,175 334 409 1664
2018-05-18 16:42:35 GMT 52.425659 -0.702744 24,025 334 408 1664
2018-05-18 16:42:32 GMT 52.419914 -0.698024 24,000 334 409 1600
2018-05-18 16:42:29 GMT 52.415543 -0.694427 23,900 333 407 1472
2018-05-18 16:42:26 GMT 52.411861 -0.691354 23,850 333 407 1344
2018-05-18 16:42:23 GMT 52.405159 -0.685939 23,775 333 405 896
2018-05-18 16:42:20 GMT 52.400967 -0.682408 23,700 333 404 704
2018-05-18 16:42:17 GMT 52.396500 -0.678484 23,650 333 402 640
2018-05-18 16:42:14 GMT 52.389748 -0.672834 23,650 333 401 640
2018-05-18 16:42:11 GMT 52.385010 -0.668793 23,600 333 399 768
2018-05-18 16:42:08 GMT 52.379925 -0.664437 23,600 333 398 896
2018-05-18 16:42:05 GMT 52.376202 -0.661063 23,525 333 394 1536
2018-05-18 16:42:02 GMT 52.370728 -0.656357 23,300 333 394 1536
2018-05-18 16:41:59 GMT 52.366333 -0.652823 23,400 333 394 1792
2018-05-18 16:41:56 GMT 52.361526 -0.648727 23,275 333 393 1920
2018-05-18 16:41:53 GMT 52.356651 -0.644662 23,225 334 393 2112
2018-05-18 16:41:50 GMT 52.351017 -0.639640 23,150 334 392 1920
2018-05-18 16:41:47 GMT 52.346920 -0.636658 23,000 334 392 2048
2018-05-18 16:41:44 GMT 52.341103 -0.631871 22,800 334 392 2048
2018-05-18 16:41:41 GMT 52.336395 -0.627899 22,750 334 392 1920
2018-05-18 16:41:38 GMT 52.331371 -0.623710 22,750 334 391 1920
2018-05-18 16:41:33 GMT 52.323132 -0.616961 22,475 334 391 1856
2018-05-18 16:41:30 GMT 52.318268 -0.613022 22,425 334 391 1856
2018-05-18 16:41:27 GMT 52.315063 -0.610199 22,425 334 391 1856
2018-05-18 16:41:24 GMT 52.310703 -0.606838 22,225 334 390 1856
2018-05-18 16:41:21 GMT 52.304581 -0.601807 22,225 334 390 1856
2018-05-18 16:41:18 GMT 52.300415 -0.598363 22,100 333 389 1792
2018-05-18 16:41:15 GMT 52.293339 -0.592320 22,025 333 389 1728
2018-05-18 16:41:12 GMT 52.291260 -0.590591 21,925 333 388 1728
2018-05-18 16:41:09 GMT 52.286495 -0.586435 21,825 333 387 1856
2018-05-18 16:41:06 GMT 52.279633 -0.580826 21,750 333 387 1792
2018-05-18 16:41:02 GMT 52.276161 -0.578038 21,575 333 386 1984
2018-05-18 16:40:59 GMT 52.268875 -0.571671 21,550 333 385 2112
2018-05-18 16:40:56 GMT 52.264435 -0.568085 21,300 333 385 2112
2018-05-18 16:40:53 GMT 52.259682 -0.564069 21,350 333 385 2048
2018-05-18 16:40:49 GMT 52.253082 -0.558472 21,175 333 384 2048
2018-05-18 16:40:46 GMT 52.248642 -0.554657 21,050 333 384 1984
2018-05-18 16:40:43 GMT 52.243946 -0.550494 21,000 333 384 1920
2018-05-18 16:40:40 GMT 52.238617 -0.546112 20,875 333 383 1920
2018-05-18 16:40:37 GMT 52.236099 -0.543823 20,850 333 383 1920
2018-05-18 16:40:34 GMT 52.229702 -0.538330 20,675 333 382 1984
2018-05-18 16:40:31 GMT 52.227001 -0.536211 20,625 333 382 2048
2018-05-18 16:40:27 GMT 52.219849 -0.530090 20,425 333 381 2176
2018-05-18 16:40:24 GMT 52.214218 -0.525055 20,375 333 380 2176
2018-05-18 16:40:21 GMT 52.209591 -0.521223 20,275 332 380 2176
2018-05-18 16:40:17 GMT 52.204613 -0.516907 20,150 332 379 2112
2018-05-18 16:40:14 GMT 52.200279 -0.513140 20,025 332 378 1920
2018-05-18 16:40:11 GMT 52.194138 -0.507804 19,950 332 378 1856
2018-05-18 16:40:08 GMT 52.188904 -0.503082 19,800 332 377 1728
2018-05-18 16:40:05 GMT 52.185524 -0.500270 19,575 333 374 1792
2018-05-18 16:40:02 GMT 52.179985 -0.495562 19,625 332 374 1792
2018-05-18 16:39:59 GMT 52.175400 -0.491562 19,575 333 373 1792
2018-05-18 16:39:56 GMT 52.172195 -0.488739 19,375 333 371 3328
2018-05-18 16:39:53 GMT 52.167183 -0.484497 19,275 332 370 2496
2018-05-18 16:39:50 GMT 52.161133 -0.479239 19,250 332 370 2432
2018-05-18 16:39:47 GMT 52.158104 -0.476571 19,075 332 370 2624
2018-05-18 16:39:44 GMT 52.153564 -0.472717 19,000 333 370 3008
2018-05-18 16:39:41 GMT 52.149029 -0.468645 18,950 333 370 3008
2018-05-18 16:39:38 GMT 52.143581 -0.463937 18,700 333 371 3328
2018-05-18 16:39:35 GMT 52.140556 -0.461347 18,425 333 373 3072
2018-05-18 16:39:32 GMT 52.135345 -0.456924 18,325 333 373 3008
2018-05-18 16:39:29 GMT 52.131386 -0.453578 18,125 333 373 2944
2018-05-18 16:39:26 GMT 52.125843 -0.448948 18,100 333 374 2624
2018-05-18 16:39:23 GMT 52.121559 -0.445496 17,975 333 374 2624
2018-05-18 16:39:20 GMT 52.116020 -0.440709 17,800 333 374 2624
2018-05-18 16:39:17 GMT 52.112297 -0.437805 17,225 333 372 2432
2018-05-18 16:39:14 GMT 52.106617 -0.433018 17,250 333 374 2560
2018-05-18 16:39:11 GMT 52.103081 -0.430115 17,275 333 372 2432
2018-05-18 16:39:08 GMT 52.096664 -0.424576 17,250 333 372 2368
2018-05-18 16:39:04 GMT 52.091125 -0.419998 17,150 333 372 2368
2018-05-18 16:39:01 GMT 52.086369 -0.416146 17,050 333 372 2304
2018-05-18 16:38:58 GMT 52.082565 -0.412827 16,750 333 369 2176
2018-05-18 16:38:55 GMT 52.077381 -0.408691 16,700 333 371 2240
2018-05-18 16:38:52 GMT 52.074646 -0.406265 16,700 333 369 2112
2018-05-18 16:38:49 GMT 52.068913 -0.401629 16,625 334 368 2048
2018-05-18 16:38:46 GMT 52.064487 -0.397940 16,475 334 362 2240
2018-05-18 16:38:43 GMT 52.060436 -0.394488 16,400 334 366 1984
2018-05-18 16:38:40 GMT 52.056202 -0.391035 16,300 334 364 2048
2018-05-18 16:38:37 GMT 52.052616 -0.388053 16,150 334 363 2176
2018-05-18 16:38:34 GMT 52.045822 -0.382638 16,050 334 362 2304
2018-05-18 16:38:31 GMT 52.043030 -0.380205 15,850 333 356 2560
2018-05-18 16:38:28 GMT 52.038574 -0.376511 15,850 333 360 2304
2018-05-18 16:38:25 GMT 52.032742 -0.371809 15,775 333 360 2368
2018-05-18 16:38:22 GMT 52.028645 -0.368434 15,600 333 358 2496
2018-05-18 16:38:19 GMT 52.024082 -0.364511 15,525 333 358 2496
2018-05-18 16:38:16 GMT 52.021454 -0.362244 15,450 333 357 2560
2018-05-18 16:38:12 GMT 52.013515 -0.355722 15,200 333 356 2624
2018-05-18 16:38:09 GMT 52.009552 -0.352554 14,800 333 355 2752
2018-05-18 16:38:05 GMT 52.002686 -0.346680 14,900 333 355 2752
2018-05-18 16:38:02 GMT 51.999756 -0.344315 14,800 333 355 2816
2018-05-18 16:37:59 GMT 51.994659 -0.340341 14,625 333 354 2944
2018-05-18 16:37:56 GMT 51.990192 -0.336260 14,525 333 353 2944
2018-05-18 16:37:53 GMT 51.986801 -0.333557 14,200 333 354 2816
2018-05-18 16:37:50 GMT 51.982464 -0.329904 14,200 333 351 2176
2018-05-18 16:37:47 GMT 51.977993 -0.325980 14,050 333 353 2560
2018-05-18 16:37:44 GMT 51.972473 -0.321350 13,925 333 351 2176
2018-05-18 16:37:41 GMT 51.969707 -0.319153 13,775 333 351 2176
2018-05-18 16:37:38 GMT 51.965099 -0.315308 13,750 333 350 2112
2018-05-18 16:37:34 GMT 51.959290 -0.310211 13,600 333 347 2112
2018-05-18 16:37:31 GMT 51.955418 -0.307068 13,400 333 345 2432
2018-05-18 16:37:28 GMT 51.951187 -0.303497 13,225 0 332 1152
2018-05-18 16:37:24 GMT 51.944710 -0.297808 13,200 333 343 2176
2018-05-18 16:37:21 GMT 51.941311 -0.295140 13,050 333 343 1792
2018-05-18 16:37:18 GMT 51.937683 -0.292053 13,000 333 344 1664
2018-05-18 16:37:15 GMT 51.931908 -0.287057 12,875 333 344 1600
2018-05-18 16:37:12 GMT 51.928371 -0.284154 12,775 333 346 1728
2018-05-18 16:37:09 GMT 51.924133 -0.280533 12,675 333 347 1984
2018-05-18 16:37:06 GMT 51.918732 -0.275992 12,450 333 349 2432
2018-05-18 16:37:03 GMT 51.915287 -0.273167 12,525 333 349 2368
2018-05-18 16:37:00 GMT 51.910995 -0.269623 12,450 335 350 2624
2018-05-18 16:36:57 GMT 51.907234 -0.266497 12,200 334 351 2816
2018-05-18 16:36:54 GMT 51.901108 -0.261536 12,100 335 349 2496
2018-05-18 16:36:51 GMT 51.899227 -0.260141 11,950 339 347 1984
2018-05-18 16:36:48 GMT 51.893463 -0.256042 11,950 339 347 1984
2018-05-18 16:36:45 GMT 51.890030 -0.253725 11,800 344 344 1600
2018-05-18 16:36:42 GMT 51.885132 -0.251275 11,725 350 340 1280
2018-05-18 16:36:39 GMT 51.879547 -0.249197 11,600 356 336 1024
2018-05-18 16:36:35 GMT 51.873367 -0.248083 11,525 3 326 1216
2018-05-18 16:36:32 GMT 51.869946 -0.247726 11,525 1 330 1152
2018-05-18 16:36:29 GMT 51.863895 -0.247879 11,450 3 326 1216
2018-05-18 16:36:26 GMT 51.858913 -0.248337 11,425 3 324 1152
2018-05-18 16:36:23 GMT 51.854351 -0.248795 11,350 3 318 1152
2018-05-18 16:36:20 GMT 51.850815 -0.249100 11,325 3 316 1152
2018-05-18 16:36:16 GMT 51.845306 -0.249568 11,150 3 303 1216
2018-05-18 16:36:13 GMT 51.840591 -0.249939 11,150 3 304 1216
2018-05-18 16:36:10 GMT 51.837204 -0.250459 10,975 3 303 1216
2018-05-18 16:36:07 GMT 51.832474 -0.250702 11,000 3 292 1920
2018-05-18 16:36:04 GMT 51.828918 -0.250978 10,925 3 289 2176
2018-05-18 16:36:01 GMT 51.823517 -0.251646 10,850 3 289 2176
2018-05-18 16:35:58 GMT 51.821365 -0.251646 10,825 3 288 2304
2018-05-18 16:35:55 GMT 51.817474 -0.252017 10,750 3 287 2432
2018-05-18 16:35:52 GMT 51.812714 -0.252463 10,600 3 284 2816
2018-05-18 16:35:49 GMT 51.807678 -0.252982 10,400 3 268 3456
2018-05-18 16:35:46 GMT 51.805069 -0.253428 10,275 3 281 3392
2018-05-18 16:35:43 GMT 51.800766 -0.253799 10,050 3 280 3648
2018-05-18 16:35:40 GMT 51.797932 -0.253906 9,300 3 278 2496
2018-05-18 16:35:37 GMT 51.793671 -0.254541 9,400 3 280 3200
2018-05-18 16:35:34 GMT 51.789318 -0.254822 9,400 3 279 3072
2018-05-18 16:35:31 GMT 51.785248 -0.255284 9,375 3 278 2496
2018-05-18 16:35:28 GMT 51.781631 -0.255655 9,150 4 278 1920
2018-05-18 16:35:25 GMT 51.776794 -0.256195 9,125 4 278 2048
2018-05-18 16:35:22 GMT 51.773621 -0.256620 8,850 4 278 1792
2018-05-18 16:35:19 GMT 51.769867 -0.257214 8,875 3 268 3712
2018-05-18 16:35:16 GMT 51.766251 -0.257511 8,850 4 278 1728
2018-05-18 16:35:13 GMT 51.762550 -0.257950 8,750 4 276 2176
2018-05-18 16:35:10 GMT 51.758560 -0.258401 8,750 4 276 2176
2018-05-18 16:35:07 GMT 51.753616 -0.258995 8,425 3 272 3392
2018-05-18 16:35:04 GMT 51.750916 -0.259292 8,425 3 274 2944
2018-05-18 16:35:01 GMT 51.745140 -0.259933 8,300 3 271 3456
2018-05-18 16:34:58 GMT 51.743546 -0.260109 8,050 3 271 3520
2018-05-18 16:34:55 GMT 51.739601 -0.260544 8,000 3 271 3520
2018-05-18 16:34:52 GMT 51.736622 -0.261002 7,900 3 270 3520
2018-05-18 16:34:49 GMT 51.731640 -0.261536 7,675 3 269 3648
2018-05-18 16:34:46 GMT 51.727634 -0.261917 7,375 3 268 3904
2018-05-18 16:34:43 GMT 51.724331 -0.262222 7,300 3 268 3968
2018-05-18 16:34:39 GMT 51.718964 -0.262558 7,025 3 268 3840
2018-05-18 16:34:36 GMT 51.714523 -0.262930 6,775 3 268 3648
2018-05-18 16:34:32 GMT 51.711296 -0.263214 6,675 3 267 3136
2018-05-18 16:34:29 GMT 51.706604 -0.263672 6,400 3 266 2880
2018-05-18 16:34:26 GMT 51.704178 -0.263895 6,250 3 266 2752
2018-05-18 16:34:23 GMT 51.699234 -0.264414 6,100 3 264 1856
2018-05-18 16:34:20 GMT 51.696991 -0.264711 6,050 3 264 1984
2018-05-18 16:34:17 GMT 51.691696 -0.265274 5,900 3 263 1536
2018-05-18 16:34:14 GMT 51.688522 -0.265602 5,825 3 262 512
2018-05-18 16:34:11 GMT 51.684902 -0.266037 5,775 3 262 768
2018-05-18 16:34:07 GMT 51.680527 -0.266495 5,725 3 263 0
2018-05-18 16:34:04 GMT 51.677128 -0.266876 5,725 3 263 64
2018-05-18 16:34:01 GMT 51.672546 -0.267383 5,700 3 263 -64
2018-05-18 16:33:56 GMT 51.666229 -0.268052 5,700 3 262 0
2018-05-18 16:33:53 GMT 51.663067 -0.268555 5,700 3 262 0
2018-05-18 16:33:50 GMT 51.658447 -0.269017 5,700 3 262 0
2018-05-18 16:33:47 GMT 51.656021 -0.269165 5,700 3 262 0
2018-05-18 16:33:44 GMT 51.653137 -0.269462 5,700 3 262 0
2018-05-18 16:33:41 GMT 51.648788 -0.269907 5,700 3 262 64
2018-05-18 16:33:38 GMT 51.644897 -0.270427 5,700 3 262 64
2018-05-18 16:33:35 GMT 51.641747 -0.270615 5,700 3 262 0
2018-05-18 16:33:32 GMT 51.637882 -0.271149 5,700 3 262 0
2018-05-18 16:33:29 GMT 51.633041 -0.271454 5,700 3 262 0
2018-05-18 16:33:26 GMT 51.629883 -0.271912 5,700 3 262 64
2018-05-18 16:33:23 GMT 51.626953 -0.272209 5,700 3 262 128
2018-05-18 16:33:20 GMT 51.622383 -0.272598 5,700 3 262 128
2018-05-18 16:33:17 GMT 51.620178 -0.272580 5,675 3 262 128
2018-05-18 16:33:14 GMT 51.615829 -0.273025 5,700 3 262 192
2018-05-18 16:33:11 GMT 51.612442 -0.273322 5,650 3 262 320
2018-05-18 16:33:08 GMT 51.608551 -0.273693 5,625 3 261 1024
2018-05-18 16:33:05 GMT 51.604458 -0.274048 5,650 3 262 512
2018-05-18 16:33:02 GMT 51.602039 -0.274277 5,600 3 261 896
2018-05-18 16:32:59 GMT 51.598175 -0.274582 5,600 3 261 1216
2018-05-18 16:32:56 GMT 51.592869 -0.275040 5,475 3 260 1536
2018-05-18 16:32:53 GMT 51.589737 -0.275475 5,450 3 260 1536
2018-05-18 16:32:50 GMT 51.585651 -0.275650 5,350 3 261 1472
2018-05-18 16:32:47 GMT 51.583233 -0.275879 5,275 3 260 1536
2018-05-18 16:32:44 GMT 51.580124 -0.276143 5,150 3 261 1472
2018-05-18 16:32:41 GMT 51.575272 -0.276737 5,125 3 261 1536
2018-05-18 16:32:38 GMT 51.572891 -0.276737 4,950 3 262 1472
2018-05-18 16:32:34 GMT 51.567310 -0.277252 4,950 3 262 1536
2018-05-18 16:32:31 GMT 51.563232 -0.277627 4,900 3 262 1472
2018-05-18 16:32:28 GMT 51.560303 -0.277924 4,850 11 259 1536
2018-05-18 16:32:25 GMT 51.557163 -0.278244 4,700 4 261 1536
2018-05-18 16:32:22 GMT 51.552368 -0.278931 4,675 5 261 1536
2018-05-18 16:32:18 GMT 51.549480 -0.279541 4,525 11 259 1536
2018-05-18 16:32:15 GMT 51.545929 -0.280151 4,525 20 258 1408
2018-05-18 16:32:12 GMT 51.540848 -0.282156 4,425 18 258 1472
2018-05-18 16:32:09 GMT 51.538010 -0.283715 4,300 27 258 1472
2018-05-18 16:32:06 GMT 51.535236 -0.285950 4,300 27 258 1472
2018-05-18 16:32:03 GMT 51.531979 -0.289001 4,200 35 259 1472
2018-05-18 16:32:00 GMT 51.528252 -0.293427 4,100 42 259 1408
2018-05-18 16:31:57 GMT 51.525414 -0.297623 4,050 47 259 1408
2018-05-18 16:31:54 GMT 51.522354 -0.303238 3,975 51 257 1536
2018-05-18 16:31:51 GMT 51.520935 -0.306281 3,900 53 257 1472
2018-05-18 16:31:48 GMT 51.519424 -0.310067 3,800 53 259 1536
2018-05-18 16:31:45 GMT 51.517227 -0.314298 3,750 52 260 1536
2018-05-18 16:31:41 GMT 51.513565 -0.321424 3,625 49 258 2048
2018-05-18 16:31:37 GMT 51.511185 -0.326249 3,475 49 259 2688
2018-05-18 16:31:34 GMT 51.509308 -0.329664 3,325 49 258 3456
2018-05-18 16:31:31 GMT 51.506516 -0.334935 3,225 49 257 3456
2018-05-18 16:31:28 GMT 51.503441 -0.340347 2,625 49 229 1728
2018-05-18 16:31:24 GMT 51.500381 -0.346366 2,800 49 252 2368
2018-05-18 16:31:21 GMT 51.498688 -0.349113 2,650 49 248 2048
2018-05-18 16:31:18 GMT 51.496456 -0.353317 2,600 49 243 1856
2018-05-18 16:31:14 GMT 51.493973 -0.357946 2,475 49 236 1792
2018-05-18 16:31:11 GMT 51.491592 -0.362920 2,350 49 226 1472
2018-05-18 16:31:08 GMT 51.488892 -0.367597 2,275 49 229 1728
2018-05-18 16:31:03 GMT 51.486237 -0.372496 2,150 49 216 768
2018-05-18 16:31:00 GMT 51.484261 -0.376358 2,100 48 208 1152
2018-05-18 16:30:56 GMT 51.481468 -0.381699 1,925 48 204 1472
2018-05-18 16:30:53 GMT 51.479465 -0.385132 1,975 48 201 1216
2018-05-18 16:30:48 GMT 51.476440 -0.390625 1,850 48 192 1408
2018-05-18 16:30:45 GMT 51.474998 -0.393143 1,750 71 162 640
2018-05-18 16:30:42 GMT 51.473053 -0.396696 1,750 71 162 640
2018-05-18 16:30:39 GMT 51.471130 -0.400333 1,675 51 177 896
2018-05-18 16:30:36 GMT 51.469757 -0.402783 1,625 54 173 768
2018-05-18 16:30:33 GMT 51.468620 -0.405579 1,600 58 170 512
2018-05-18 16:30:30 GMT 51.467468 -0.409166 1,575 75 159 1024
2018-05-18 16:30:27 GMT 51.466618 -0.412598 1,550 75 159 1024
2018-05-18 16:30:23 GMT 51.466106 -0.417175 1,500 83 155 1600
2018-05-18 16:30:20 GMT 51.465778 -0.420990 1,350 88 149 1600
2018-05-18 16:30:17 GMT 51.465687 -0.424042 1,325 88 153 1856
2018-05-18 16:30:13 GMT 51.465641 -0.428543 1,200 88 149 1600
2018-05-18 16:30:10 GMT 51.465546 -0.431807 1,000 87 142 2496
2018-05-18 16:30:06 GMT 51.465500 -0.435562 1,000 87 142 2432
2018-05-18 16:30:02 GMT 51.465363 -0.439758 850 87 142 2432
2018-05-18 16:29:59 GMT 51.465454 -0.443192 725 87 142 2432

Making use of Plane Finder data

You are free to use the raw flight data, aircraft information and images provided in this report for your own purposes provided the data is correctly attributed to Plane Finder. We ask that you please credit Plane Finder and link to planefinder.net in close proximity to the content.

Optionally one of the following logos (no smaller then 150x24px) can be used and must link to planefinder.net

Embedding the Plane Finder map

You are welcome to embed the Plane Finder playback map on your website to offer visitors a more interactive experience. We suggest using the following HTML code:

<iframe src="//planefinder.net/data/report/BA1418-G-EUYU-7700-squawk-2018-05-18/map" width="800" height="600" seamless="seamless"></iframe>

Where our data comes from

Plane Finder has a global network of data feeds and antenna radars that receive data broadcast directly from aircraft. The primary technologies used are ADS-B and MLAT. We also show feeds from the FAA and a FLARM glider feed.

Click here to find out more about the Plane Finder network.

How we collect our data